createdAt,value
2022-09-12T00:00:17.066Z,29.977
2022-09-12T00:05:17.085Z,29.979
2022-09-12T00:10:17.067Z,29.979
2022-09-12T00:15:17.067Z,29.979
2022-09-12T00:20:17.359Z,29.976
2022-09-12T00:25:17.094Z,29.974
2022-09-12T00:30:17.147Z,29.976
2022-09-12T00:35:17.104Z,29.976
2022-09-12T00:40:17.232Z,29.976
2022-09-12T00:45:17.093Z,29.974
2022-09-12T00:50:20.589Z,29.972
2022-09-12T00:55:20.079Z,29.971
2022-09-12T01:00:17.091Z,29.969
2022-09-12T01:05:20.065Z,29.968
2022-09-12T01:10:20.058Z,29.966
2022-09-12T01:15:20.042Z,29.964
2022-09-12T01:20:20.065Z,29.963
2022-09-12T01:25:20.689Z,29.962
2022-09-12T01:30:20.081Z,29.962
2022-09-12T01:35:20.102Z,29.960
2022-09-12T01:40:17.138Z,29.961
2022-09-12T01:45:20.111Z,29.962
2022-09-12T01:50:20.080Z,29.963
2022-09-12T01:55:20.120Z,29.962
2022-09-12T02:00:20.489Z,29.958
2022-09-12T02:05:20.079Z,29.958
2022-09-12T02:10:17.145Z,29.957
2022-09-12T02:15:20.105Z,29.955
2022-09-12T02:20:31.018Z,29.956
2022-09-12T02:25:17.166Z,29.956
2022-09-12T02:30:17.135Z,29.954
2022-09-12T02:35:17.618Z,29.956
2022-09-12T02:40:20.188Z,29.956
2022-09-12T02:45:20.096Z,29.953
2022-09-12T02:50:20.113Z,29.951
2022-09-12T02:55:17.139Z,29.950
2022-09-12T03:00:20.119Z,29.953
2022-09-12T03:05:20.470Z,29.954
2022-09-12T03:10:20.139Z,29.955
2022-09-12T03:15:20.131Z,29.953
2022-09-12T03:20:20.103Z,29.953
2022-09-12T03:25:20.116Z,29.954
2022-09-12T03:30:20.166Z,29.951
2022-09-12T03:35:20.881Z,29.947
2022-09-12T03:40:20.675Z,29.948
2022-09-12T03:45:20.115Z,29.949
2022-09-12T03:50:20.104Z,29.947
2022-09-12T03:55:20.156Z,29.944
2022-09-12T04:00:20.034Z,29.940
2022-09-12T04:05:19.374Z,29.941
2022-09-12T04:10:19.396Z,29.941
2022-09-12T04:15:19.941Z,29.937
2022-09-12T04:20:19.392Z,29.935
2022-09-12T04:25:16.273Z,29.933
2022-09-12T04:30:19.454Z,29.930
2022-09-12T04:35:19.471Z,29.929
2022-09-12T04:40:19.433Z,29.929
2022-09-12T04:45:19.436Z,29.929
2022-09-12T04:50:19.906Z,29.928
2022-09-12T04:55:16.448Z,29.927
2022-09-12T05:00:16.462Z,29.929
2022-09-12T05:05:16.466Z,29.930
2022-09-12T05:10:16.459Z,29.929
2022-09-12T05:15:16.454Z,29.926
2022-09-12T05:20:16.472Z,29.920
2022-09-12T05:25:16.850Z,29.917
2022-09-12T05:30:16.473Z,29.916
2022-09-12T05:35:16.454Z,29.913
2022-09-12T05:40:16.499Z,29.913
2022-09-12T05:45:19.418Z,29.910
2022-09-12T05:50:16.453Z,29.908
2022-09-12T05:55:16.433Z,29.908
2022-09-12T06:00:16.863Z,29.907
2022-09-12T06:05:16.474Z,29.905
2022-09-12T06:10:16.485Z,29.902
2022-09-12T06:15:16.484Z,29.901
2022-09-12T06:20:19.464Z,29.901
2022-09-12T06:25:16.549Z,29.900
2022-09-12T06:30:16.514Z,29.899
2022-09-12T06:35:16.905Z,29.897
2022-09-12T06:40:16.651Z,29.895
2022-09-12T06:45:19.452Z,29.893
2022-09-12T06:50:16.511Z,29.892
2022-09-12T06:55:19.917Z,29.887
2022-09-12T07:00:16.490Z,29.886
2022-09-12T07:05:20.062Z,29.884
2022-09-12T07:10:22.290Z,29.882
2022-09-12T07:15:19.528Z,29.882
2022-09-12T07:20:19.501Z,29.879
2022-09-12T07:25:19.501Z,29.879
2022-09-12T07:30:19.492Z,29.879
2022-09-12T07:35:19.474Z,29.875
2022-09-12T07:40:16.931Z,29.876
2022-09-12T07:45:19.512Z,29.872
2022-09-12T07:50:19.480Z,29.872
2022-09-12T07:55:19.566Z,29.872
2022-09-12T08:00:16.581Z,29.868
2022-09-12T08:05:16.540Z,29.866
2022-09-12T08:10:16.514Z,29.868
2022-09-12T08:15:16.877Z,29.866
2022-09-12T08:20:16.326Z,29.865
2022-09-12T08:25:16.544Z,29.865
2022-09-12T08:30:16.608Z,29.863
2022-09-12T08:35:16.569Z,29.862
2022-09-12T08:40:16.614Z,29.860
2022-09-12T08:45:16.568Z,29.860
2022-09-12T08:50:16.920Z,29.858
2022-09-12T08:55:16.571Z,29.859
2022-09-12T09:00:16.540Z,29.858
2022-09-12T09:05:19.550Z,29.860
2022-09-12T09:10:16.540Z,29.859
2022-09-12T09:15:19.570Z,29.857
2022-09-12T09:20:21.125Z,29.856
2022-09-12T09:25:20.846Z,29.853
2022-09-12T09:30:19.592Z,29.852
2022-09-12T09:35:19.550Z,29.851
2022-09-12T09:40:16.653Z,29.850
2022-09-12T09:45:19.561Z,29.854
2022-09-12T09:50:19.522Z,29.855
2022-09-12T09:55:19.896Z,29.853
2022-09-12T10:00:19.564Z,29.852
2022-09-12T10:05:19.530Z,29.850
2022-09-12T10:10:19.560Z,29.848
2022-09-12T10:15:19.540Z,29.849
2022-09-12T10:20:21.971Z,29.851
2022-09-12T10:25:19.574Z,29.853
2022-09-12T10:30:20.067Z,29.850
2022-09-12T10:35:19.540Z,29.849
2022-09-12T10:40:19.545Z,29.846
2022-09-12T10:45:19.594Z,29.846
2022-09-12T10:50:22.843Z,29.846
2022-09-12T10:55:16.638Z,29.845
2022-09-12T11:00:16.584Z,29.844
2022-09-12T11:05:21.985Z,29.844
2022-09-12T11:10:16.590Z,29.840
2022-09-12T11:15:16.620Z,29.837
2022-09-12T11:20:16.613Z,29.834
2022-09-12T11:25:16.640Z,29.832
2022-09-12T11:30:19.596Z,29.831
2022-09-12T11:35:19.964Z,29.833
2022-09-12T11:40:19.684Z,29.835
2022-09-12T11:45:19.587Z,29.835
2022-09-12T11:50:19.560Z,29.834
2022-09-12T11:55:19.611Z,29.833
2022-09-12T12:00:19.586Z,29.834
2022-09-12T12:05:19.670Z,29.833
2022-09-12T12:10:20.156Z,29.832
2022-09-12T12:15:19.604Z,29.831
2022-09-12T12:20:19.613Z,29.830
2022-09-12T12:25:22.400Z,29.830
2022-09-12T12:30:19.634Z,29.830
2022-09-12T12:35:19.584Z,29.830
2022-09-12T12:40:19.635Z,29.829
2022-09-12T12:45:19.997Z,29.828
2022-09-12T12:50:16.628Z,29.828
2022-09-12T12:55:16.678Z,29.828
2022-09-12T13:00:16.637Z,29.829
2022-09-12T13:05:16.665Z,29.829
2022-09-12T13:10:16.623Z,29.831
2022-09-12T13:15:16.660Z,29.828
2022-09-12T13:20:28.981Z,29.829
2022-09-12T13:25:19.657Z,29.828
2022-09-12T13:30:19.628Z,29.829
2022-09-12T13:35:19.588Z,29.830
2022-09-12T13:40:19.701Z,29.831
2022-09-12T13:45:19.624Z,29.830
2022-09-12T13:50:19.603Z,29.828
2022-09-12T13:55:20.152Z,29.829
2022-09-12T14:00:16.671Z,29.831
2022-09-12T14:05:16.655Z,29.831
2022-09-12T14:10:16.680Z,29.832
2022-09-12T14:15:16.687Z,29.830
2022-09-12T14:20:16.668Z,29.830
2022-09-12T14:25:16.681Z,29.828
2022-09-12T14:30:17.035Z,29.829
2022-09-12T14:35:19.692Z,29.827
2022-09-12T14:40:19.713Z,29.829
2022-09-12T14:45:19.637Z,29.826
2022-09-12T14:50:19.670Z,29.826
2022-09-12T14:55:19.716Z,29.824
2022-09-12T15:00:20.156Z,29.823
2022-09-12T15:05:19.656Z,29.822
2022-09-12T15:10:19.637Z,29.821
2022-09-12T15:15:19.669Z,29.821
2022-09-12T15:20:19.676Z,29.819
2022-09-12T15:25:19.682Z,29.817
2022-09-12T15:30:16.589Z,29.818
2022-09-12T15:35:17.086Z,29.817
2022-09-12T15:40:16.786Z,29.815
2022-09-12T15:45:16.706Z,29.814
2022-09-12T15:50:16.686Z,29.813
2022-09-12T15:55:16.723Z,29.813
2022-09-12T16:00:19.674Z,29.812
2022-09-12T16:05:20.264Z,29.812
2022-09-12T16:10:19.704Z,29.810
2022-09-12T16:15:19.704Z,29.808
2022-09-12T16:20:19.701Z,29.808
2022-09-12T16:25:19.689Z,29.808
2022-09-12T16:30:19.692Z,29.808
2022-09-12T16:35:19.723Z,29.807
2022-09-12T16:40:20.197Z,29.806
2022-09-12T16:45:19.672Z,29.805
2022-09-12T16:50:16.765Z,29.805
2022-09-12T16:55:19.708Z,29.803
2022-09-12T17:00:19.689Z,29.801
2022-09-12T17:05:19.686Z,29.800
2022-09-12T17:10:19.708Z,29.799
2022-09-12T17:15:20.210Z,29.797
2022-09-12T17:20:16.732Z,29.795
2022-09-12T17:25:16.737Z,29.794
2022-09-12T17:30:19.788Z,29.793
2022-09-12T17:35:16.744Z,29.788
2022-09-12T17:40:16.804Z,29.787
2022-09-12T17:45:18.519Z,29.786
2022-09-12T17:50:31.256Z,29.784
2022-09-12T17:55:16.751Z,29.781
2022-09-12T18:00:19.762Z,29.778
2022-09-12T18:05:19.732Z,29.774
2022-09-12T18:10:19.715Z,29.773
2022-09-12T18:15:19.732Z,29.770
2022-09-12T18:20:20.207Z,29.769
2022-09-12T18:25:19.747Z,29.768
2022-09-12T18:30:21.531Z,29.770
2022-09-12T18:35:19.744Z,29.768
2022-09-12T18:40:19.763Z,29.763
2022-09-12T18:45:19.767Z,29.761
2022-09-12T18:50:19.726Z,29.761
2022-09-12T18:55:20.280Z,29.761
2022-09-12T19:00:19.736Z,29.761
2022-09-12T19:05:19.724Z,29.758
2022-09-12T19:10:19.778Z,29.756
2022-09-12T19:15:19.764Z,29.754
2022-09-12T19:20:19.737Z,29.753
2022-09-12T19:25:16.663Z,29.751
2022-09-12T19:30:20.266Z,29.752
2022-09-12T19:35:19.779Z,29.750
2022-09-12T19:40:19.790Z,29.749
2022-09-12T19:45:19.790Z,29.747
2022-09-12T19:50:19.766Z,29.748
2022-09-12T19:55:19.773Z,29.747
2022-09-12T20:00:19.728Z,29.747
2022-09-12T20:05:20.181Z,29.745
2022-09-12T20:10:19.782Z,29.745
2022-09-12T20:15:19.798Z,29.745
2022-09-12T20:20:19.757Z,29.743
2022-09-12T20:25:19.812Z,29.743
2022-09-12T20:30:19.794Z,29.745
2022-09-12T20:35:19.751Z,29.745
2022-09-12T20:40:17.282Z,29.745
2022-09-12T20:45:16.822Z,29.744
2022-09-12T20:50:19.838Z,29.743
2022-09-12T20:55:19.812Z,29.742
2022-09-12T21:00:19.797Z,29.741
2022-09-12T21:05:19.815Z,29.741
2022-09-12T21:10:20.259Z,29.740
2022-09-12T21:15:19.805Z,29.741
2022-09-12T21:20:16.693Z,29.741
2022-09-12T21:25:16.855Z,29.740
2022-09-12T21:30:19.812Z,29.743
2022-09-12T21:35:19.811Z,29.740
2022-09-12T21:40:19.953Z,29.740
2022-09-12T21:45:20.407Z,29.739
2022-09-12T21:50:19.834Z,29.742
2022-09-12T21:55:19.808Z,29.739
2022-09-12T22:00:16.842Z,29.738
2022-09-12T22:05:19.853Z,29.735
2022-09-12T22:10:19.828Z,29.736
2022-09-12T22:15:55.348Z,29.738
2022-09-12T22:20:20.362Z,29.736
2022-09-12T22:25:19.828Z,29.735
2022-09-12T22:30:19.840Z,29.733
2022-09-12T22:35:19.856Z,29.736
2022-09-12T22:40:19.991Z,29.737
2022-09-12T22:45:19.862Z,29.738
2022-09-12T22:50:19.856Z,29.738
2022-09-12T22:55:20.389Z,29.737
2022-09-12T23:00:19.884Z,29.737
2022-09-12T23:05:19.845Z,29.738
2022-09-12T23:10:19.837Z,29.738
2022-09-12T23:15:19.871Z,29.737
2022-09-12T23:20:19.845Z,29.737
2022-09-12T23:25:16.906Z,29.738
2022-09-12T23:30:20.384Z,29.740
2022-09-12T23:35:16.903Z,29.744
2022-09-12T23:40:16.928Z,29.746
2022-09-12T23:45:16.885Z,29.745
2022-09-12T23:50:16.874Z,29.748
2022-09-12T23:55:16.917Z,29.748
